Time;durP1;ratioP1;P1;durP2;ratioP2;P2;SDS_P1;SDS_P2;PMS_P1;PMS_P2;Temp;Humidity;BMP_temperature;BMP_pressure;BME280_temperature;BME280_humidity;BME280_pressure;Samples;Min_cycle;Max_cycle;Signal;HPM_P1;HPM_P2
2021/01/21 00:00:23;;;;;;;2.72;1.30;;;17.10;61.10;;;;;;5014517;28;20022;-70
2021/01/21 00:02:49;;;;;;;2.90;1.38;;;17.00;61.00;;;;;;5014475;28;20018;-71
2021/01/21 00:05:14;;;;;;;9.93;1.30;;;17.00;61.10;;;;;;5014651;28;20072;-72
2021/01/21 00:07:40;;;;;;;3.70;1.52;;;17.00;61.20;;;;;;5014321;28;20025;-71
2021/01/21 00:10:07;;;;;;;3.88;1.83;;;17.00;61.10;;;;;;5014475;28;20030;-71
2021/01/21 00:12:32;;;;;;;2.20;1.20;;;16.90;61.10;;;;;;5027827;28;20025;-72
2021/01/21 00:14:58;;;;;;;1.67;1.20;;;16.90;61.20;;;;;;5034494;28;20386;-73
2021/01/21 00:17:23;;;;;;;2.08;1.10;;;16.90;61.30;;;;;;5034207;28;20460;-71
2021/01/21 00:19:49;;;;;;;3.03;1.60;;;16.90;61.30;;;;;;5033412;28;20033;-71
2021/01/21 00:22:15;;;;;;;2.42;1.40;;;16.90;61.50;;;;;;5034134;28;20071;-71
2021/01/21 00:24:40;;;;;;;2.50;1.45;;;16.80;61.40;;;;;;5032408;28;20037;-71
2021/01/21 00:27:06;;;;;;;1.60;0.98;;;16.80;61.40;;;;;;5034063;28;20021;-71
2021/01/21 00:29:31;;;;;;;2.35;1.20;;;16.80;61.50;;;;;;5034170;28;20591;-72
2021/01/21 00:31:58;;;;;;;2.67;1.30;;;16.80;61.50;;;;;;5034103;28;20033;-70
2021/01/21 00:34:24;;;;;;;4.85;1.33;;;16.80;61.60;;;;;;5033478;28;20045;-70
2021/01/21 00:36:50;;;;;;;2.70;1.40;;;16.80;61.70;;;;;;5025876;28;20109;-70
2021/01/21 00:39:16;;;;;;;3.03;1.17;;;16.70;61.80;;;;;;5014086;28;20502;-70
2021/01/21 00:41:41;;;;;;;2.55;1.30;;;16.70;61.80;;;;;;5020979;28;20025;-71
2021/01/21 00:44:07;;;;;;;3.67;1.52;;;16.70;61.90;;;;;;5031783;28;20477;-72
2021/01/21 00:46:33;;;;;;;3.05;1.35;;;16.60;61.90;;;;;;5033541;28;20033;-73
2021/01/21 00:48:58;;;;;;;3.15;1.55;;;16.60;62.00;;;;;;5033633;28;20028;-71
2021/01/21 00:51:26;;;;;;;4.32;1.52;;;16.60;62.10;;;;;;5033538;28;20036;-70
2021/01/21 00:53:52;;;;;;;2.65;1.20;;;16.60;62.20;;;;;;5033315;28;20626;-72
2021/01/21 00:56:17;;;;;;;2.88;1.38;;;16.60;62.20;;;;;;5033400;28;20516;-72
2021/01/21 00:58:43;;;;;;;2.92;1.20;;;16.60;62.40;;;;;;5033185;28;20026;-73
2021/01/21 01:01:08;;;;;;;3.00;1.20;;;16.50;62.50;;;;;;5033269;28;20026;-72
2021/01/21 01:03:34;;;;;;;3.05;1.30;;;16.50;62.50;;;;;;5033143;28;20030;-72
2021/01/21 01:06:04;;;;;;;3.42;1.20;;;16.50;62.70;;;;;;5033053;28;20478;-71
2021/01/21 01:08:33;;;;;;;4.05;1.05;;;16.50;62.60;;;;;;5033027;28;20112;-71
2021/01/21 01:10:59;;;;;;;2.50;1.10;;;16.50;62.80;;;;;;5033168;28;20029;-70
2021/01/21 01:13:25;;;;;;;3.80;1.25;;;16.40;62.90;;;;;;5032198;28;20477;-70
2021/01/21 01:15:51;;;;;;;2.53;1.20;;;16.50;63.10;;;;;;5032606;28;20068;-70
2021/01/21 01:18:17;;;;;;;2.10;1.15;;;16.40;63.00;;;;;;5033087;28;20022;-73
2021/01/21 01:20:42;;;;;;;3.53;1.38;;;16.40;63.20;;;;;;5032443;28;20029;-71
2021/01/21 01:23:08;;;;;;;2.75;1.60;;;16.40;63.20;;;;;;5033004;28;20061;-70
2021/01/21 01:25:35;;;;;;;1.65;0.95;;;16.40;63.30;;;;;;5031412;28;20029;-71
2021/01/21 01:28:01;;;;;;;1.83;0.90;;;16.30;63.40;;;;;;5033212;28;20105;-71
2021/01/21 01:30:27;;;;;;;2.78;1.38;;;16.30;63.40;;;;;;5033104;28;20040;-71
2021/01/21 01:32:52;;;;;;;2.70;1.30;;;16.30;63.60;;;;;;5032322;28;20034;-70
2021/01/21 01:35:19;;;;;;;3.38;0.98;;;16.30;63.60;;;;;;5032657;28;20048;-71
2021/01/21 01:37:44;;;;;;;1.85;1.15;;;16.30;63.70;;;;;;5015062;28;20042;-70
2021/01/21 01:40:11;;;;;;;3.60;1.17;;;16.30;63.90;;;;;;5019414;28;20493;-71
2021/01/21 01:42:38;;;;;;;2.47;1.30;;;16.30;63.90;;;;;;5031345;28;20030;-70
2021/01/21 01:45:09;;;;;;;1.75;0.93;;;16.20;64.10;;;;;;5032421;28;20516;-72
2021/01/21 01:47:38;;;;;;;2.83;1.30;;;16.20;64.10;;;;;;5032497;28;20144;-71
2021/01/21 01:50:04;;;;;;;1.75;1.00;;;16.20;64.10;;;;;;5032409;28;20034;-71
2021/01/21 01:52:30;;;;;;;1.58;0.90;;;16.20;64.20;;;;;;5029404;28;20074;-73
2021/01/21 01:54:56;;;;;;;2.50;1.10;;;16.20;64.50;;;;;;5012282;28;20042;-71
2021/01/21 01:57:23;;;;;;;2.45;1.05;;;16.20;65.20;;;;;;5012360;28;20080;-70
2021/01/21 01:59:57;;;;;;;2.33;0.95;;;16.20;64.60;;;;;;5017529;28;20029;-71
2021/01/21 02:02:23;;;;;;;2.15;1.00;;;16.10;64.60;;;;;;5032266;28;20044;-71
2021/01/21 02:04:48;;;;;;;4.95;1.48;;;16.10;64.80;;;;;;5031974;28;20029;-71
2021/01/21 02:07:14;;;;;;;2.35;1.10;;;16.10;64.80;;;;;;5032025;28;20030;-72
2021/01/21 02:09:41;;;;;;;3.90;1.00;;;16.10;64.80;;;;;;5031745;28;20119;-70
2021/01/21 02:12:38;;;;;;;1.48;0.90;;;16.10;65.10;;;;;;5031466;28;20100;-72
2021/01/21 02:15:04;;;;;;;2.22;1.20;;;16.00;65.30;;;;;;5031920;28;20037;-72
2021/01/21 02:17:59;;;;;;;5.30;1.17;;;16.00;65.20;;;;;;5032041;28;20033;-72
2021/01/21 02:20:49;;;;;;;3.63;0.80;;;16.00;66.10;;;;;;5031897;28;20449;-71
2021/01/21 02:23:24;;;;;;;3.10;1.10;;;16.00;65.90;;;;;;5031760;28;20029;-72
2021/01/21 02:25:59;;;;;;;4.00;1.25;;;16.00;65.90;;;;;;5031689;28;20489;-73
2021/01/21 02:28:27;;;;;;;3.80;0.85;;;16.00;66.00;;;;;;5030902;28;20068;-73
2021/01/21 02:30:56;;;;;;;3.60;1.00;;;16.00;66.00;;;;;;5031337;28;20029;-72
2021/01/21 02:33:39;;;;;;;4.47;0.93;;;16.00;65.90;;;;;;5031803;28;20029;-71
2021/01/21 02:36:08;;;;;;;4.47;1.10;;;15.90;65.90;;;;;;5031654;28;20047;-72
2021/01/21 02:38:37;;;;;;;3.03;0.93;;;15.90;66.00;;;;;;5029535;28;20025;-73
2021/01/21 02:41:03;;;;;;;3.38;0.90;;;15.90;66.10;;;;;;5031002;28;20034;-72
2021/01/21 02:43:29;;;;;;;3.33;1.02;;;15.90;66.10;;;;;;5031550;28;20382;-70
2021/01/21 02:45:54;;;;;;;5.32;1.05;;;15.80;66.00;;;;;;5030852;28;20033;-72
2021/01/21 02:48:20;;;;;;;4.55;0.90;;;15.80;66.00;;;;;;5031303;28;20025;-73
2021/01/21 02:50:46;;;;;;;2.30;0.80;;;15.80;66.10;;;;;;5031246;28;20083;-71
2021/01/21 02:53:12;;;;;;;2.70;0.80;;;15.80;66.10;;;;;;5031285;28;20393;-72
2021/01/21 02:56:16;;;;;;;4.93;1.00;;;15.70;66.00;;;;;;5030861;28;20029;-73
2021/01/21 02:58:44;;;;;;;3.92;0.90;;;15.70;66.00;;;;;;5002576;28;20077;-73
2021/01/21 03:01:10;;;;;;;3.28;1.00;;;15.70;66.10;;;;;;5007660;28;20030;-72
2021/01/21 03:03:38;;;;;;;5.30;0.90;;;15.70;66.80;;;;;;5011221;28;20033;-73
2021/01/21 03:06:06;;;;;;;5.05;0.73;;;15.70;65.90;;;;;;5011380;28;20037;-72
2021/01/21 03:08:32;;;;;;;4.15;0.80;;;15.70;66.20;;;;;;5011748;28;20053;-73
2021/01/21 03:11:12;;;;;;;5.32;1.20;;;15.70;66.20;;;;;;5019460;28;20579;-72
2021/01/21 03:13:41;;;;;;;3.72;0.82;;;15.70;66.20;;;;;;5030845;28;20022;-73
2021/01/21 03:16:07;;;;;;;4.93;1.13;;;15.60;66.30;;;;;;5031191;28;20041;-73
2021/01/21 03:18:32;;;;;;;5.22;1.05;;;15.60;66.20;;;;;;5030932;28;20022;-72
2021/01/21 03:20:58;;;;;;;3.53;0.73;;;15.60;66.20;;;;;;5031140;28;20044;-73
2021/01/21 03:23:24;;;;;;;2.85;0.93;;;15.60;66.20;;;;;;5030991;28;20036;-73
2021/01/21 03:25:49;;;;;;;5.60;0.93;;;15.60;66.20;;;;;;5030795;28;20116;-70
2021/01/21 03:28:15;;;;;;;5.53;1.45;;;15.50;66.00;;;;;;5030198;28;20034;-70
2021/01/21 03:30:41;;;;;;;2.40;0.70;;;15.50;66.20;;;;;;5032787;28;20068;-70
2021/01/21 03:33:06;;;;;;;4.20;0.80;;;15.50;66.30;;;;;;5035149;28;20053;-70
2021/01/21 03:35:32;;;;;;;4.78;1.17;;;15.50;66.20;;;;;;5034549;28;20034;-72
2021/01/21 03:37:57;;;;;;;6.32;0.90;;;15.50;66.30;;;;;;5035269;28;20080;-70
2021/01/21 03:40:23;;;;;;;1.95;0.75;;;15.40;66.00;;;;;;5034581;28;20036;-71
2021/01/21 03:42:48;;;;;;;4.25;0.80;;;15.40;65.90;;;;;;5034493;28;20547;-70
2021/01/21 03:45:14;;;;;;;4.78;0.80;;;15.40;65.90;;;;;;5034678;28;20029;-70
2021/01/21 03:47:40;;;;;;;5.43;0.90;;;15.40;66.00;;;;;;5034384;28;20029;-71
2021/01/21 03:50:06;;;;;;;2.95;0.80;;;15.40;66.00;;;;;;5034778;28;20018;-70
2021/01/21 03:52:32;;;;;;;5.50;0.93;;;15.40;66.10;;;;;;5034469;28;20535;-73
2021/01/21 03:54:57;;;;;;;7.97;1.10;;;15.30;65.90;;;;;;5034912;28;20065;-71
2021/01/21 03:57:23;;;;;;;4.03;0.80;;;15.30;66.10;;;;;;5034518;28;20095;-70
2021/01/21 03:59:49;;;;;;;4.30;0.93;;;15.30;66.10;;;;;;5028365;28;20033;-70
2021/01/21 04:02:14;;;;;;;5.75;1.00;;;15.30;66.10;;;;;;5034521;28;20707;-72
2021/01/21 04:04:40;;;;;;;3.88;1.02;;;15.30;66.00;;;;;;5034027;28;20029;-70
2021/01/21 04:07:05;;;;;;;5.65;1.25;;;15.30;66.00;;;;;;5034444;28;20394;-71
2021/01/21 04:09:31;;;;;;;5.53;1.30;;;15.30;66.00;;;;;;5034764;28;20090;-70
2021/01/21 04:11:57;;;;;;;6.38;1.10;;;15.20;65.80;;;;;;5033700;28;20489;-71
2021/01/21 04:14:22;;;;;;;6.13;1.40;;;15.20;65.80;;;;;;5033209;28;20112;-72
2021/01/21 04:16:48;;;;;;;5.43;0.93;;;15.20;65.80;;;;;;5034036;28;20113;-70
2021/01/21 04:19:13;;;;;;;6.05;1.15;;;15.20;65.70;;;;;;5025866;28;20030;-71
2021/01/21 04:21:39;;;;;;;4.65;1.00;;;15.20;66.50;;;;;;5026732;28;20033;-70
2021/01/21 04:24:05;;;;;;;4.95;1.13;;;15.20;65.50;;;;;;5034145;28;20030;-72
2021/01/21 04:26:31;;;;;;;6.55;1.27;;;15.20;65.50;;;;;;5034311;28;20386;-70
2021/01/21 04:28:56;;;;;;;4.00;0.82;;;15.10;66.10;;;;;;5033922;28;20026;-71
2021/01/21 04:31:22;;;;;;;7.22;1.17;;;15.20;65.50;;;;;;5033744;28;20585;-72
2021/01/21 04:33:48;;;;;;;4.68;1.05;;;15.20;65.50;;;;;;5033409;28;20053;-72
2021/01/21 04:36:13;;;;;;;4.90;1.45;;;15.10;65.30;;;;;;5033925;28;20053;-72
2021/01/21 04:38:39;;;;;;;5.18;0.90;;;15.10;65.20;;;;;;5033690;28;20520;-72
2021/01/21 04:41:05;;;;;;;6.55;1.40;;;15.10;65.30;;;;;;5031645;28;20075;-71
2021/01/21 04:43:31;;;;;;;5.78;1.00;;;15.10;65.30;;;;;;5033944;28;20033;-72
2021/01/21 04:45:56;;;;;;;4.18;1.08;;;15.10;65.30;;;;;;5033326;28;20521;-73
2021/01/21 04:48:23;;;;;;;7.03;1.77;;;15.10;65.30;;;;;;5033730;28;20033;-72
2021/01/21 04:50:50;;;;;;;5.50;1.30;;;15.10;65.20;;;;;;5033090;28;20506;-72
2021/01/21 04:53:16;;;;;;;6.45;1.20;;;15.10;65.20;;;;;;5033506;28;20497;-72
2021/01/21 04:55:46;;;;;;;5.30;1.05;;;15.00;65.00;;;;;;5033271;28;20116;-72
2021/01/21 04:58:25;;;;;;;4.45;1.30;;;15.10;65.10;;;;;;5032049;28;20052;-71
2021/01/21 05:00:52;;;;;;;7.50;1.33;;;15.00;65.80;;;;;;5033030;28;20037;-72
2021/01/21 05:03:18;;;;;;;6.68;1.50;;;15.00;65.00;;;;;;5033134;28;20056;-73
2021/01/21 05:05:43;;;;;;;5.22;0.90;;;15.00;64.90;;;;;;5014827;28;20030;-71
2021/01/21 05:08:09;;;;;;;5.95;1.23;;;15.00;65.00;;;;;;5013404;28;20029;-72
2021/01/21 05:10:36;;;;;;;7.05;0.95;;;15.00;65.00;;;;;;5021904;28;20025;-72
2021/01/21 05:13:02;;;;;;;5.20;1.10;;;15.00;64.90;;;;;;5033345;28;20025;-72
2021/01/21 05:15:27;;;;;;;5.13;1.25;;;15.00;64.90;;;;;;5033547;28;20402;-72
2021/01/21 05:17:53;;;;;;;7.82;1.65;;;14.90;64.70;;;;;;5032485;28;20021;-72
2021/01/21 05:20:23;;;;;;;4.10;0.82;;;14.90;64.80;;;;;;5032874;28;20037;-72
2021/01/21 05:22:55;;;;;;;7.57;2.17;;;14.90;65.50;;;;;;5032740;28;20100;-71
2021/01/21 05:25:21;;;;;;;5.43;1.30;;;14.90;64.60;;;;;;5032167;28;20139;-72
2021/01/21 05:27:47;;;;;;;7.95;1.40;;;14.90;64.80;;;;;;5032503;28;20492;-72
2021/01/21 05:30:15;;;;;;;6.95;1.80;;;14.90;64.70;;;;;;5032605;28;20029;-73
2021/01/21 05:32:40;;;;;;;6.40;1.50;;;14.90;65.40;;;;;;5031230;28;20515;-73
2021/01/21 05:35:07;;;;;;;5.20;0.90;;;14.90;64.70;;;;;;5032555;28;20045;-72
2021/01/21 05:37:38;;;;;;;6.32;1.13;;;14.80;64.60;;;;;;5032477;28;20017;-72
2021/01/21 05:40:06;;;;;;;5.28;1.17;;;14.90;64.60;;;;;;5032234;28;20398;-73
2021/01/21 05:42:36;;;;;;;6.70;1.60;;;14.80;64.50;;;;;;5032767;28;20069;-72
2021/01/21 05:45:03;;;;;;;9.25;1.92;;;14.90;64.50;;;;;;5032569;28;20022;-72
2021/01/21 05:47:29;;;;;;;5.05;1.45;;;14.90;64.50;;;;;;5032659;28;20048;-71
2021/01/21 05:49:56;;;;;;;4.80;1.23;;;14.80;64.50;;;;;;5032212;28;20068;-70
2021/01/21 05:52:22;;;;;;;6.25;1.25;;;14.80;64.40;;;;;;5031935;28;20540;-70
2021/01/21 05:54:49;;;;;;;7.97;1.33;;;14.80;64.50;;;;;;5032102;28;20512;-70
2021/01/21 05:57:16;;;;;;;5.97;1.38;;;14.80;64.40;;;;;;5032334;28;20166;-70
2021/01/21 05:59:43;;;;;;;6.55;1.80;;;14.80;64.50;;;;;;5018746;28;20036;-71
2021/01/21 06:02:09;;;;;;;3.75;1.05;;;14.80;64.40;;;;;;5030656;28;20567;-70
2021/01/21 06:04:36;;;;;;;7.00;1.35;;;14.80;64.40;;;;;;5012128;28;20028;-70
2021/01/21 06:07:04;;;;;;;4.95;1.20;;;14.80;64.40;;;;;;5012604;28;20075;-72
2021/01/21 06:09:31;;;;;;;4.82;1.30;;;14.80;64.40;;;;;;5030090;28;20498;-69
2021/01/21 06:11:59;;;;;;;6.25;1.10;;;14.80;64.40;;;;;;5031760;28;20063;-70
2021/01/21 06:14:25;;;;;;;7.15;1.40;;;14.90;64.70;;;;;;5031960;28;20037;-69
2021/01/21 06:16:52;;;;;;;4.32;1.15;;;14.90;64.30;;;;;;5031750;28;20470;-69
2021/01/21 06:19:18;;;;;;;4.40;1.10;;;15.10;64.20;;;;;;5031693;28;20513;-70
2021/01/21 06:21:48;;;;;;;7.13;1.30;;;15.20;64.10;;;;;;5031527;28;20041;-70
2021/01/21 06:24:16;;;;;;;5.75;1.10;;;15.20;64.10;;;;;;5031586;28;20022;-69
2021/01/21 06:26:45;;;;;;;5.97;1.23;;;15.40;64.10;;;;;;5031627;28;20022;-70
2021/01/21 06:29:15;;;;;;;4.25;1.23;;;15.40;64.80;;;;;;5031806;28;20053;-70
2021/01/21 06:31:42;;;;;;;4.75;1.17;;;15.50;64.10;;;;;;5031087;28;20037;-70
2021/01/21 06:34:17;;;;;;;4.95;1.40;;;15.60;64.00;;;;;;5029721;28;20175;-70
2021/01/21 06:36:51;;;;;;;4.88;1.10;;;15.70;63.80;;;;;;5011593;28;20022;-70
2021/01/21 06:39:39;;;;;;;5.28;0.98;;;15.80;63.50;;;;;;5011945;28;20029;-70
2021/01/21 06:42:05;;;;;;;5.40;1.73;;;15.90;63.40;;;;;;5020202;28;20025;-69
2021/01/21 06:44:31;;;;;;;4.97;1.10;;;16.00;63.20;;;;;;5030718;28;20033;-70
2021/01/21 06:46:59;;;;;;;5.07;1.30;;;16.10;63.10;;;;;;5028343;28;20026;-69
2021/01/21 06:49:25;;;;;;;4.80;1.10;;;16.20;62.80;;;;;;5030283;28;20033;-70
2021/01/21 06:51:52;;;;;;;6.03;0.93;;;16.30;62.80;;;;;;5030641;28;20026;-70
2021/01/21 06:54:19;;;;;;;7.07;1.23;;;16.40;62.80;;;;;;5031430;28;20036;-70
2021/01/21 06:56:44;;;;;;;4.63;1.05;;;16.50;62.80;;;;;;5029322;28;20040;-71
2021/01/21 06:59:10;;;;;;;5.90;1.15;;;16.50;62.70;;;;;;5019947;28;20025;-71
2021/01/21 07:01:39;;;;;;;5.72;1.00;;;16.60;62.70;;;;;;5030181;28;20100;-70
2021/01/21 07:04:04;;;;;;;4.50;0.73;;;16.70;62.50;;;;;;5029628;28;20037;-71
2021/01/21 07:06:51;;;;;;;3.90;1.00;;;16.80;62.40;;;;;;5031162;28;20096;-71
2021/01/21 07:09:21;;;;;;;7.18;1.00;;;16.90;62.10;;;;;;5031123;28;20112;-70
2021/01/21 07:11:47;;;;;;;3.60;0.93;;;16.90;61.90;;;;;;5029532;28;20022;-70
2021/01/21 07:14:25;;;;;;;4.07;1.13;;;17.00;61.70;;;;;;5014664;28;20505;-71
2021/01/21 07:16:56;;;;;;;6.10;1.00;;;17.10;61.70;;;;;;5011108;28;20029;-72
2021/01/21 07:19:39;;;;;;;6.22;1.27;;;17.10;62.20;;;;;;5026800;28;20036;-69
2021/01/21 07:22:23;;;;;;;4.28;1.25;;;17.20;62.00;;;;;;5029243;28;20509;-72
2021/01/21 07:24:57;;;;;;;5.00;1.40;;;17.30;61.90;;;;;;5030661;28;20087;-71
2021/01/21 07:27:26;;;;;;;3.78;1.10;;;17.30;61.80;;;;;;5022587;28;20104;-72
2021/01/21 07:30:13;;;;;;;2.78;0.88;;;17.40;61.70;;;;;;5029200;28;20401;-71
2021/01/21 07:32:39;;;;;;;4.88;1.55;;;17.40;61.50;;;;;;5029963;28;20037;-73
2021/01/21 07:35:05;;;;;;;8.20;1.70;;;17.50;61.50;;;;;;5026391;28;20041;-72
2021/01/21 07:37:47;;;;;;;5.35;1.33;;;17.60;62.70;;;;;;5018532;28;20037;-71
2021/01/21 07:40:13;;;;;;;6.95;1.77;;;17.70;62.30;;;;;;5011621;28;20030;-73
2021/01/21 07:42:38;;;;;;;7.18;1.50;;;17.80;63.40;;;;;;5011001;28;20033;-73
2021/01/21 07:45:06;;;;;;;3.00;1.00;;;17.90;63.10;;;;;;5011056;28;20099;-72
2021/01/21 07:47:39;;;;;;;7.45;1.40;;;17.90;63.20;;;;;;5011527;28;20022;-75
2021/01/21 07:50:17;;;;;;;4.82;1.50;;;18.00;62.50;;;;;;5011271;28;20034;-73
2021/01/21 07:53:27;;;;;;;4.72;0.80;;;18.00;61.90;;;;;;5010988;28;20433;-74
2021/01/21 07:56:03;;;;;;;5.53;1.02;;;18.00;61.50;;;;;;5021720;28;20065;-74
2021/01/21 07:58:31;;;;;;;5.13;1.00;;;18.00;61.10;;;;;;5029881;28;20021;-75
2021/01/21 08:01:02;;;;;;;7.03;1.38;;;18.00;61.00;;;;;;5029044;28;20018;-73
2021/01/21 08:03:40;;;;;;;5.40;1.17;;;18.00;60.90;;;;;;5030914;28;20029;-74
2021/01/21 08:06:13;;;;;;;8.30;1.63;;;18.10;60.10;;;;;;5030877;28;20018;-73
2021/01/21 08:08:40;;;;;;;6.10;1.20;;;18.10;59.80;;;;;;5030163;28;20564;-72
2021/01/21 08:11:12;;;;;;;5.25;0.93;;;18.10;60.00;;;;;;5029290;28;20037;-72
2021/01/21 08:13:38;;;;;;;5.85;1.60;;;18.20;59.70;;;;;;5029382;28;20021;-72
2021/01/21 08:16:05;;;;;;;3.60;1.20;;;18.30;59.30;;;;;;5023215;28;20049;-73
2021/01/21 08:18:33;;;;;;;3.88;1.13;;;18.40;59.10;;;;;;5024516;28;20036;-73
2021/01/21 08:20:58;;;;;;;10.48;1.70;;;18.50;59.00;;;;;;5034191;28;20055;-73
2021/01/21 08:23:24;;;;;;;8.80;1.73;;;18.50;58.60;;;;;;5016563;28;20033;-73
2021/01/21 08:25:55;;;;;;;6.68;1.45;;;18.60;58.60;;;;;;5021092;28;20159;-73
2021/01/21 08:28:22;;;;;;;9.65;2.10;;;18.60;58.50;;;;;;5032312;28;20046;-72
2021/01/21 08:30:49;;;;;;;7.78;1.67;;;18.70;58.40;;;;;;5015354;28;20034;-72
2021/01/21 08:33:24;;;;;;;8.10;1.65;;;18.70;58.40;;;;;;5024493;28;20508;-72
2021/01/21 08:35:50;;;;;;;7.10;1.67;;;18.80;58.30;;;;;;5030977;28;20501;-72
2021/01/21 08:38:24;;;;;;;9.30;1.50;;;18.80;58.10;;;;;;5021110;28;20022;-73
2021/01/21 08:40:52;;;;;;;5.60;1.38;;;18.90;58.00;;;;;;5013982;28;20029;-73
2021/01/21 08:43:20;;;;;;;7.55;1.48;;;18.90;57.80;;;;;;5019664;28;20018;-73
2021/01/21 08:45:46;;;;;;;6.57;2.15;;;19.00;57.80;;;;;;5025711;28;20056;-72
2021/01/21 08:48:29;;;;;;;5.28;1.40;;;19.00;57.80;;;;;;5028788;28;20029;-71
2021/01/21 08:50:55;;;;;;;5.68;1.20;;;19.10;57.50;;;;;;5033393;28;20029;-73
2021/01/21 08:53:26;;;;;;;7.05;1.63;;;19.10;57.40;;;;;;5033692;28;20025;-71
2021/01/21 08:55:53;;;;;;;5.72;1.30;;;19.20;57.90;;;;;;5033366;28;20116;-72
2021/01/21 08:58:26;;;;;;;6.72;1.23;;;19.20;57.10;;;;;;5033582;28;20014;-72
2021/01/21 09:01:12;;;;;;;7.47;1.55;;;19.30;57.00;;;;;;5031457;28;20076;-70
2021/01/21 09:03:48;;;;;;;7.35;1.85;;;19.30;57.00;;;;;;5013558;28;20036;-71
2021/01/21 09:06:19;;;;;;;7.03;1.35;;;19.40;56.90;;;;;;5013521;28;20212;-72
2021/01/21 09:08:54;;;;;;;3.70;1.20;;;19.40;56.70;;;;;;5013418;28;20026;-72
2021/01/21 09:11:38;;;;;;;5.53;1.10;;;19.50;56.50;;;;;;5013736;28;20108;-72
2021/01/21 09:14:06;;;;;;;5.40;1.23;;;19.50;56.30;;;;;;5026482;28;20038;-72
2021/01/21 09:16:49;;;;;;;6.35;1.00;;;19.60;56.20;;;;;;5032193;28;20026;-72
2021/01/21 09:19:16;;;;;;;4.97;1.40;;;19.60;56.10;;;;;;5017211;28;20493;-72
2021/01/21 09:21:58;;;;;;;6.93;1.63;;;19.70;55.80;;;;;;5013294;28;20112;-73
2021/01/21 09:24:24;;;;;;;5.15;1.30;;;19.80;55.60;;;;;;5013339;28;20084;-73
2021/01/21 09:27:15;;;;;;;5.95;1.10;;;19.90;55.90;;;;;;5013000;28;20022;-73
2021/01/21 09:30:02;;;;;;;4.57;1.35;;;19.90;55.50;;;;;;5018027;28;20099;-72
2021/01/21 09:32:34;;;;;;;5.97;1.67;;;20.00;55.40;;;;;;5032675;28;20045;-72
2021/01/21 09:35:03;;;;;;;4.20;1.83;;;20.00;55.30;;;;;;5032837;28;20501;-72
2021/01/21 09:37:32;;;;;;;5.10;1.10;;;20.10;55.10;;;;;;5015094;28;20030;-71
2021/01/21 09:39:58;;;;;;;9.07;1.35;;;20.20;55.00;;;;;;5013975;28;20092;-72
2021/01/21 09:42:24;;;;;;;4.25;1.17;;;20.20;54.80;;;;;;5012814;28;20064;-72
2021/01/21 09:44:50;;;;;;;3.75;1.30;;;20.30;54.70;;;;;;5011555;28;20478;-73
2021/01/21 09:47:16;;;;;;;5.78;1.30;;;20.40;54.70;;;;;;5013845;28;20075;-72
2021/01/21 09:49:43;;;;;;;6.30;1.20;;;20.40;54.30;;;;;;5012741;28;20149;-72
2021/01/21 09:52:09;;;;;;;4.28;1.33;;;20.40;54.00;;;;;;5021370;28;20025;-72
2021/01/21 09:54:35;;;;;;;6.32;1.33;;;20.50;54.60;;;;;;5031861;28;20025;-73
2021/01/21 09:57:00;;;;;;;5.30;1.20;;;20.50;54.00;;;;;;5031653;28;20036;-72
2021/01/21 09:59:26;;;;;;;6.93;1.63;;;20.60;53.80;;;;;;5031166;28;20060;-72
2021/01/21 10:01:51;;;;;;;10.32;2.13;;;20.70;53.90;;;;;;5031102;28;20043;-72
2021/01/21 10:04:17;;;;;;;8.05;2.38;;;20.70;53.90;;;;;;5031671;28;20067;-72
2021/01/21 10:06:43;;;;;;;5.10;2.65;;;20.80;53.70;;;;;;5031663;28;20528;-72
2021/01/21 10:09:08;;;;;;;8.02;3.10;;;20.80;53.60;;;;;;5019035;28;20550;-72
2021/01/21 10:11:34;;;;;;;3.75;2.22;;;20.90;53.70;;;;;;5010810;28;20029;-72
2021/01/21 10:14:00;;;;;;;4.28;1.85;;;20.90;53.70;;;;;;5012472;28;20033;-72
2021/01/21 10:16:27;;;;;;;5.47;1.90;;;20.90;53.60;;;;;;5012376;28;20486;-72
2021/01/21 10:18:53;;;;;;;4.88;1.83;;;20.90;53.50;;;;;;5012091;28;20022;-73
2021/01/21 10:21:19;;;;;;;6.78;1.77;;;21.00;53.50;;;;;;5012173;28;20026;-73
2021/01/21 10:23:44;;;;;;;5.45;1.77;;;21.00;53.30;;;;;;5010592;28;20069;-72
2021/01/21 10:26:10;;;;;;;5.03;1.45;;;21.10;53.20;;;;;;5011973;28;20025;-72
2021/01/21 10:28:35;;;;;;;3.35;1.35;;;21.10;53.10;;;;;;5020610;28;20501;-73
2021/01/21 10:31:01;;;;;;;4.45;1.42;;;21.20;52.90;;;;;;5031575;28;20060;-72
2021/01/21 10:33:27;;;;;;;4.85;1.02;;;21.20;52.90;;;;;;5031924;28;20032;-72
2021/01/21 10:35:52;;;;;;;2.92;1.48;;;21.20;52.80;;;;;;5031307;28;20037;-73
2021/01/21 10:38:18;;;;;;;3.70;1.55;;;21.20;52.70;;;;;;5031166;28;20048;-72
2021/01/21 10:40:43;;;;;;;3.78;1.48;;;21.30;52.60;;;;;;5031354;28;20488;-72
2021/01/21 10:43:09;;;;;;;3.53;1.10;;;21.30;52.60;;;;;;5031722;28;20028;-72
2021/01/21 10:45:35;;;;;;;4.53;1.60;;;21.30;52.60;;;;;;5031366;28;20033;-72
2021/01/21 10:48:00;;;;;;;6.03;1.50;;;21.40;52.20;;;;;;5031817;28;20036;-72
2021/01/21 10:50:26;;;;;;;4.22;1.08;;;21.40;52.20;;;;;;5031342;28;20057;-72
2021/01/21 10:52:51;;;;;;;3.63;1.25;;;21.40;51.80;;;;;;5031314;28;20025;-73
2021/01/21 10:55:17;;;;;;;5.00;1.55;;;21.50;51.60;;;;;;5031308;28;20071;-72
2021/01/21 10:57:43;;;;;;;4.93;1.20;;;21.50;51.50;;;;;;5031172;28;20512;-72
2021/01/21 11:00:09;;;;;;;8.10;1.67;;;21.40;51.50;;;;;;5030991;28;20409;-72
2021/01/21 11:02:34;;;;;;;3.88;1.10;;;21.40;51.70;;;;;;5029568;28;20155;-73
2021/01/21 11:05:00;;;;;;;5.22;1.55;;;21.30;52.00;;;;;;5030086;28;20436;-72
2021/01/21 11:07:25;;;;;;;5.55;1.27;;;21.20;52.10;;;;;;5030226;28;20036;-73
2021/01/21 11:09:51;;;;;;;5.30;1.40;;;21.20;52.20;;;;;;5010885;28;20361;-72
2021/01/21 11:12:17;;;;;;;3.92;1.10;;;21.00;52.10;;;;;;5010113;28;20080;-72
2021/01/21 11:14:45;;;;;;;4.75;1.33;;;20.90;52.20;;;;;;5011315;28;20038;-72
2021/01/21 11:17:10;;;;;;;4.47;1.60;;;20.80;52.40;;;;;;5023027;28;20020;-71
2021/01/21 11:19:36;;;;;;;7.15;1.30;;;20.80;52.50;;;;;;5030514;28;20025;-72
2021/01/21 11:22:02;;;;;;;5.40;1.10;;;20.60;52.70;;;;;;5029436;28;20512;-72
2021/01/21 11:24:27;;;;;;;6.30;1.52;;;20.60;52.70;;;;;;5031343;28;20029;-71
2021/01/21 11:26:53;;;;;;;3.22;1.52;;;20.40;52.90;;;;;;5029093;28;20022;-71
2021/01/21 11:29:18;;;;;;;4.43;1.00;;;20.30;53.10;;;;;;5030229;28;20095;-71
2021/01/21 11:31:44;;;;;;;3.33;0.90;;;20.20;53.10;;;;;;5030704;28;20037;-71
2021/01/21 11:34:10;;;;;;;3.63;0.93;;;20.20;53.30;;;;;;5030802;28;20029;-71
2021/01/21 11:36:35;;;;;;;3.25;1.30;;;20.10;53.40;;;;;;5029817;28;20386;-70
2021/01/21 11:39:01;;;;;;;3.78;0.93;;;20.00;53.40;;;;;;5024061;28;20026;-71
2021/01/21 11:41:27;;;;;;;2.85;1.00;;;20.00;53.50;;;;;;5026442;28;20068;-71
2021/01/21 11:43:52;;;;;;;5.40;1.20;;;19.90;53.40;;;;;;5030179;28;20036;-71
2021/01/21 11:46:18;;;;;;;5.40;1.48;;;19.90;53.50;;;;;;5030312;28;20029;-71
2021/01/21 11:48:44;;;;;;;7.05;1.10;;;19.90;53.50;;;;;;5030448;28;20477;-72
2021/01/21 11:51:09;;;;;;;2.78;0.88;;;19.80;53.30;;;;;;5031397;28;20033;-72
2021/01/21 11:53:35;;;;;;;3.50;1.02;;;19.70;53.40;;;;;;5034503;28;20017;-72
2021/01/21 11:56:03;;;;;;;7.43;1.05;;;19.70;53.50;;;;;;5021651;28;20493;-72
2021/01/21 11:58:29;;;;;;;3.17;1.02;;;19.70;53.90;;;;;;5034950;28;20024;-72
2021/01/21 12:00:54;;;;;;;5.40;1.30;;;19.70;53.70;;;;;;5034443;28;20108;-72
2021/01/21 12:03:20;;;;;;;8.75;1.25;;;19.70;53.90;;;;;;5034430;28;20390;-72
2021/01/21 12:05:46;;;;;;;12.15;1.48;;;19.70;54.10;;;;;;5034390;28;20076;-73
2021/01/21 12:08:11;;;;;;;9.63;1.63;;;19.70;54.10;;;;;;5034178;28;20021;-72
2021/01/21 12:10:37;;;;;;;6.45;0.98;;;19.80;54.20;;;;;;5034263;28;20430;-73
2021/01/21 12:13:02;;;;;;;5.78;1.00;;;19.80;54.30;;;;;;5020291;28;20034;-73
2021/01/21 12:15:29;;;;;;;5.85;1.30;;;19.80;54.20;;;;;;5014923;28;20041;-73
2021/01/21 12:17:55;;;;;;;6.18;1.23;;;19.90;54.10;;;;;;5014176;28;20116;-72
2021/01/21 12:20:21;;;;;;;9.77;1.30;;;20.30;53.70;;;;;;5020301;28;20036;-73
2021/01/21 12:22:46;;;;;;;5.18;1.10;;;21.00;51.80;;;;;;5033402;28;20381;-72
2021/01/21 12:25:12;;;;;;;3.83;1.13;;;22.40;49.60;;;;;;5034165;28;20512;-72
2021/01/21 12:27:38;;;;;;;7.07;1.27;;;22.90;47.90;;;;;;5033902;28;20024;-73
2021/01/21 12:30:04;;;;;;;6.15;1.10;;;22.60;47.80;;;;;;5033969;28;20396;-73
2021/01/21 12:32:30;;;;;;;5.38;0.95;;;22.60;47.90;;;;;;5033194;28;20022;-73
2021/01/21 12:34:55;;;;;;;7.35;1.48;;;22.70;48.00;;;;;;5031842;28;20033;-73
2021/01/21 12:37:21;;;;;;;8.57;1.40;;;23.30;47.10;;;;;;5030786;28;20521;-72
2021/01/21 12:39:47;;;;;;;7.05;1.55;;;23.30;46.90;;;;;;5032038;28;20045;-72
2021/01/21 12:42:13;;;;;;;5.03;1.38;;;23.20;47.30;;;;;;5032186;28;20126;-72
2021/01/21 12:44:40;;;;;;;2.67;0.90;;;23.30;47.50;;;;;;5031772;28;20501;-73
2021/01/21 12:47:06;;;;;;;4.47;1.10;;;23.40;48.00;;;;;;5033595;28;20032;-73
2021/01/21 12:49:31;;;;;;;4.43;1.10;;;23.80;47.20;;;;;;5033569;28;20018;-72